Terminal Aerodrome Forecast
Issued by NWS

Home | Current Version | Previous Version | Text Only | Print | Product List | Glossary On
Versions: 1 2 3 4 5 6 7 8 9 10 11 12
763
FTUS45 KGGW 171723
TAFSDY
TAF
KSDY 171723Z 1718/1818 21011KT P6SM FEW230 FEW250
     FM180100 23008KT P6SM FEW026 FEW150 WS020/29035KT
     FM180200 22008KT P6SM FEW026 FEW200=

USA.gov is the U.S. government's official web portal to all federal, state and local government web resources and services.